Accueil
METAR-TAF:

METAR-TAF

Aéroports :

Rankin Inlet, Nunavut, Canada

latitude: 62-49N, longitude: 092-07W, altitude: 31 m

Observation

Le bulletin a été fait il y a 10 minutes, à 12:00 UTC
Vent 7 kt de nord/nord-ouest
Température -3°C
Humidité 86%
Pression 1020 hPa
Visibilité: 4.8 km
Nuages fragmentés à une hauteur de 1100 ft
neige faible

METAR: CYRT 011200Z 34007KT 3SM -SN BKN011 M03/M05 A3012 RMK SC6 SLP206

Heure: 07:10 (12:10 UTC)

Prévision

Le bulletin a été fait il y a 32 minutes, à 11:38 UTC
Prévision valable du 01 à 12 UTC au 01 à 24 UTC
Vent 7 kt de ouest/nord-ouest
Visibilité: 10 km
Ciel couvert à une hauteur de 1500 ft
Temporairement
du 01 à 12 UTC au 01 à 24 UTC
Visibilité: 3.2 km
Ciel couvert à une hauteur de 700 ft
neige faible, brume

TAF: CYRT 011138Z 0112/0124 30007KT P6SM OVC015 TEMPO 0112/0124 2SM -SN BR OVC007 RMK NXT FCST BY 011800Z

Observations et prévisions météorologiques de plus de 4000 aéroports (messages METAR et TAF).

Les stations disponibles sont représentées par des disques jaunes et rouges sur la carte.

Passer la souris dessus pour voir le nom de la station.

Cliquer dessus pour voir les observations et prévisions météorologiques.

Pour changer de carte: cliquez sur les boutons verts avec une croix noire pour zoomer, sur le bouton vert avec un tiret pour effectuer un zoom arrière, ou sur les flèches vertes pour les cartes adjacentes.


METAR-TAF: